SANTO DOMINGO 23 DE JUNIO DEL 2017

 

 

FTDR31 MDSD 230400Z
TAF

  

TAF MDPP 230400Z 2306/2406 00000KT 9999 FEW018 SCT300=

TAF MDST 230400Z 2306/2406 13006KT 9999 FEW018 SCT300 BECMG 2308/2310 00000KT=

TAF MDPC 230400Z 2306/2406 07012KT 9999 SCT018 PROB30 2309/2315 8000 VCSH SCT018 SCT080=

TAF MDBH 230400Z 2306/2406 00000KT 9999 FEW016CB FEW018 BECMG 2314/2316 13008KT=

TAF MDJB 230400Z 2306/2406 00000KT 9999 FEW016CB SCT018 BECMG 2313/2315 03010KT SCT020=

TAF MDSD 230400Z 2306/2406 02004KT 9999 FEW016CB SCT018 BECMG 2313/2315 06008KT=

TAF MDLR 230400Z 2306/2406 00000KT 9999 SCT016 BECMG 2314/2316 14012KT=  

TAF MDCY 230400Z 2306/2406 00000KT 9999 FEW018 BECMG 2316/2318 06012KT SCT020 SCT300=

 

MDPP AEROPUERTO INTERNACIONAL LA UNION PUERTO PLATA

MDST AEROPUERTO INTERNACIONAL DE SANTIAGO

MDPC AEROPUERTO INTERNACIONAL PUNTA CANA

MDBH AEROPUERTO INTERNACIONAL DE BARAHONA

MDJB AEROPUERTO INTERNACIONAL JOAQUIN BALAGUER

MDSD AEROPUERTO INTERNACIONAL DE LAS AMERICAS

MDLR AEROPUERTO INTERNACIONAL LA ROMANA

MDCY AEROPUERTO INTERNACIONAL DE CATEY

 

ROBIN RODRIGUEZ

MDPP // O.GUZMAN

MDST // DE LOS SANTOS

MDPC // L .MARTE

MDLR // A.BERIHUETE